Lakeville, Pennsylvania
Current Conditions -  °F | °C
As of 1:53 PM on Thursday 23 Oct 2014 (Local Time) from KMPO Reporting Station
Overcast Overcast  
Wind Chill: 36°   Ceiling: 600
Heat Index: 43°   Visibility: 10mi
Dew Point: 40°   Wind: 15mph
Humidity: 89%   Direction: 340°NNW
Pressure: 29.78"   Gusts: 32mph
Location:  41.43°N, 75.27°W
Report Text: KMPO 231753Z AUTO 34013G28KT 10SM OVC006 06/04 A2978 RMK AO2 PK WND 33028/1750 RAE16 SLP094 6//// T00610044 10067 20056 58004 TSNO PNO $
Loading
Personal Weather Stations






























Interactive Weather Map
Tropical Storm Tracking
New forecast layout! Learn more

10-Day Weather Forecast

Advertisements
Track Severe Weather on mobile